createdAt,value
2023-03-04T20:14:48.217Z,2.10
2023-03-04T20:15:48.140Z,2.60
2023-03-04T20:16:48.095Z,3.00
2023-03-04T20:17:48.035Z,3.00
2023-03-04T20:18:47.974Z,2.90
2023-03-04T20:19:47.924Z,2.70
2023-03-04T20:20:47.870Z,3.00
2023-03-04T20:21:47.833Z,2.40
2023-03-04T20:22:47.778Z,2.20
2023-03-04T20:23:47.738Z,3.00
2023-03-04T20:24:47.676Z,3.00
2023-03-04T20:25:47.628Z,3.10
2023-03-04T20:26:47.577Z,3.20
2023-03-04T20:27:47.530Z,3.20
2023-03-04T20:28:47.484Z,2.50
2023-03-04T20:29:47.429Z,2.60
2023-03-04T20:30:47.447Z,2.70
2023-03-04T20:31:47.355Z,2.60
2023-03-04T20:32:47.283Z,3.10
2023-03-04T20:33:47.255Z,3.30
2023-03-04T20:34:47.283Z,3.00
2023-03-04T20:35:47.335Z,2.90
2023-03-04T20:36:47.129Z,2.80
2023-03-04T20:37:47.055Z,2.60
2023-03-04T20:38:47.003Z,3.20
2023-03-04T20:39:46.960Z,3.00
2023-03-04T20:40:46.914Z,2.80
2023-03-04T20:41:46.863Z,2.50
2023-03-04T20:42:46.823Z,3.10
2023-03-04T20:43:46.767Z,3.00
2023-03-04T20:44:47.126Z,3.20
2023-03-04T20:45:46.675Z,3.00
2023-03-04T20:46:46.650Z,2.60
2023-03-04T20:47:46.605Z,2.90
2023-03-04T20:48:46.544Z,3.10
2023-03-04T20:49:46.486Z,2.40
2023-03-04T20:50:46.444Z,2.50
2023-03-04T20:51:46.423Z,2.70
2023-03-04T20:52:46.360Z,2.90
2023-03-04T20:53:46.326Z,2.40
2023-03-04T20:54:46.271Z,2.60
2023-03-04T20:55:46.233Z,3.00
2023-03-04T20:56:46.489Z,2.40
2023-03-04T20:57:46.115Z,2.60
2023-03-04T20:58:46.077Z,2.40
2023-03-04T20:59:46.352Z,3.50
2023-03-04T21:00:47.910Z,2.30
2023-03-04T21:01:45.973Z,2.30
2023-03-04T21:02:45.909Z,2.20
2023-03-04T21:03:45.854Z,2.10
2023-03-04T21:04:45.877Z,2.10
2023-03-04T21:05:45.766Z,2.10
2023-03-04T21:06:45.702Z,2.30
2023-03-04T21:07:45.661Z,2.10
2023-03-04T21:08:45.609Z,2.80
2023-03-04T21:09:45.557Z,2.40
2023-03-04T21:10:45.514Z,2.10
2023-03-04T21:11:45.470Z,2.30
2023-03-04T21:12:45.426Z,2.40
2023-03-04T21:13:45.401Z,2.10
2023-03-04T21:14:45.331Z,2.30
2023-03-04T21:15:45.302Z,2.30
2023-03-04T21:16:45.235Z,2.10
2023-03-04T21:17:45.188Z,2.60
2023-03-04T21:18:45.165Z,3.10
2023-03-04T21:19:45.109Z,3.20
2023-03-04T21:20:45.062Z,3.00
2023-03-04T21:21:45.013Z,2.50
2023-03-04T21:22:44.976Z,2.30
2023-03-04T21:23:44.924Z,2.60
2023-03-04T21:24:44.912Z,2.30
2023-03-04T21:25:44.828Z,2.90
2023-03-04T21:26:44.786Z,2.80
2023-03-04T21:27:44.738Z,2.80
2023-03-04T21:28:44.692Z,2.50
2023-03-04T21:29:44.647Z,2.60
2023-03-04T21:30:44.602Z,2.20
2023-03-04T21:31:44.669Z,2.60
2023-03-04T21:32:44.564Z,2.60
2023-03-04T21:33:44.464Z,3.10
2023-03-04T21:34:44.444Z,3.00
2023-03-04T21:35:44.414Z,2.30
2023-03-04T21:36:44.328Z,2.50
2023-03-04T21:37:44.286Z,2.70
2023-03-04T21:38:44.238Z,2.70
2023-03-04T21:40:44.156Z,2.50
2023-03-04T21:41:44.109Z,2.20
2023-03-04T21:42:44.055Z,2.80
2023-03-04T21:43:44.014Z,2.70
2023-03-04T21:44:51.097Z,2.50
2023-03-04T21:45:43.924Z,2.80
2023-03-04T21:46:43.909Z,2.30
2023-03-04T21:47:43.839Z,2.50
2023-03-04T21:48:43.791Z,2.60
2023-03-04T21:49:43.738Z,2.30
2023-03-04T21:50:43.716Z,2.20
2023-03-04T21:51:43.654Z,2.80
2023-03-04T21:52:43.609Z,2.60
2023-03-04T21:53:43.562Z,2.30
2023-03-04T21:54:43.515Z,2.50
2023-03-04T21:55:43.477Z,2.50
2023-03-04T21:56:43.424Z,2.20
2023-03-04T21:57:43.381Z,2.40
2023-03-04T21:58:43.342Z,2.40
2023-03-04T21:59:43.287Z,2.20
2023-03-04T22:00:43.483Z,2.40
2023-03-04T22:01:43.229Z,2.30
2023-03-04T22:02:43.162Z,2.30
2023-03-04T22:03:43.135Z,2.90
2023-03-04T22:04:43.062Z,2.50
2023-03-04T22:05:43.020Z,2.30
2023-03-04T22:06:43.000Z,2.50
2023-03-04T22:07:42.924Z,2.00
2023-03-04T22:08:42.898Z,2.80
2023-03-04T22:09:42.829Z,2.70
2023-03-04T22:10:42.786Z,2.40
2023-03-04T22:11:42.762Z,2.80
2023-03-04T22:12:42.698Z,3.00
2023-03-04T22:13:42.649Z,2.50
2023-03-04T22:14:42.602Z,2.80
2023-03-04T22:15:42.557Z,3.00
2023-03-04T22:16:54.538Z,3.20
2023-03-04T22:17:42.475Z,2.90
2023-03-04T22:18:42.427Z,3.30
2023-03-04T22:19:42.389Z,2.90
2023-03-04T22:20:42.326Z,3.10
2023-03-04T22:21:42.286Z,3.10
2023-03-04T22:22:42.257Z,3.00
2023-03-04T22:23:42.191Z,3.50
2023-03-04T22:24:42.146Z,3.40
2023-03-04T22:25:42.096Z,3.40
2023-03-04T22:26:42.055Z,3.10
2023-03-04T22:27:42.011Z,3.40
2023-03-04T22:28:41.958Z,3.80
2023-03-04T22:29:41.924Z,3.40
2023-03-04T22:30:41.869Z,3.60
2023-03-04T22:31:41.965Z,3.30
2023-03-04T22:32:41.871Z,3.60
2023-03-04T22:33:41.738Z,3.30
2023-03-04T22:34:41.689Z,3.40
2023-03-04T22:35:41.681Z,3.40
2023-03-04T22:36:41.589Z,3.60
2023-03-04T22:37:41.544Z,3.60
2023-03-04T22:38:41.529Z,3.50
2023-03-04T22:39:41.460Z,3.40
2023-03-04T22:40:41.413Z,3.50
2023-03-04T22:41:41.360Z,2.90
2023-03-04T22:42:41.323Z,3.50
2023-03-04T22:43:41.268Z,3.00
2023-03-04T22:44:41.224Z,3.10
2023-03-04T22:45:41.202Z,3.40
2023-03-04T22:46:41.134Z,2.90
2023-03-04T22:47:41.086Z,3.00
2023-03-04T22:48:41.038Z,2.80
2023-03-04T22:49:40.995Z,3.10
2023-03-04T22:50:40.944Z,4.10
2023-03-04T22:51:40.897Z,5.00
2023-03-04T22:52:40.848Z,6.50
2023-03-04T22:53:40.811Z,4.20
2023-03-04T22:54:40.776Z,3.60
2023-03-04T22:55:40.709Z,3.30
2023-03-04T22:56:40.663Z,3.20
2023-03-04T22:57:40.633Z,3.30
2023-03-04T22:58:40.567Z,3.10
2023-03-04T22:59:40.532Z,2.90
2023-03-04T23:00:40.497Z,3.30
2023-03-04T23:01:40.428Z,3.10
2023-03-04T23:02:40.424Z,3.50
2023-03-04T23:03:40.335Z,2.90
2023-03-04T23:04:42.687Z,3.20
2023-03-04T23:05:40.246Z,3.10
2023-03-04T23:06:40.201Z,3.20
2023-03-04T23:07:40.155Z,3.00
2023-03-04T23:08:40.112Z,3.20
2023-03-04T23:09:40.067Z,3.40
2023-03-04T23:10:40.029Z,3.60
2023-03-04T23:11:39.965Z,3.50
2023-03-04T23:12:39.923Z,3.10
2023-03-04T23:13:39.869Z,3.10
2023-03-04T23:14:39.916Z,3.10
2023-03-04T23:15:39.773Z,3.30
2023-03-04T23:16:39.769Z,3.40
2023-03-04T23:17:39.686Z,3.90
2023-03-04T23:18:39.638Z,4.00
2023-03-04T23:19:39.590Z,3.60
2023-03-04T23:20:39.551Z,3.50
2023-03-04T23:21:39.498Z,3.30
2023-03-04T23:22:39.452Z,3.20
2023-03-04T23:23:39.409Z,3.40
2023-03-04T23:24:39.358Z,3.50
2023-03-04T23:25:39.311Z,2.80
2023-03-04T23:26:39.494Z,3.00
2023-03-04T23:27:39.222Z,3.00
2023-03-04T23:28:39.173Z,3.50
2023-03-04T23:29:39.153Z,2.90
2023-03-04T23:30:39.118Z,3.30
2023-03-04T23:31:39.058Z,3.10
2023-03-04T23:32:39.205Z,2.80
2023-03-04T23:33:38.936Z,3.20
2023-03-04T23:34:38.918Z,2.90
2023-03-04T23:35:38.921Z,3.10
2023-03-04T23:36:38.797Z,3.30
2023-03-04T23:37:38.750Z,2.90
2023-03-04T23:38:38.707Z,2.70
2023-03-04T23:39:38.660Z,3.10
2023-03-04T23:40:38.620Z,2.90
2023-03-04T23:41:38.597Z,3.20
2023-03-04T23:42:38.542Z,3.40
2023-03-04T23:43:38.473Z,3.10
2023-03-04T23:44:38.426Z,3.10
2023-03-04T23:45:38.417Z,3.40
2023-03-04T23:46:38.336Z,3.60
2023-03-04T23:47:38.287Z,3.90
2023-03-04T23:48:38.240Z,4.20
2023-03-04T23:49:38.198Z,3.40
2023-03-04T23:50:38.158Z,3.20
2023-03-04T23:51:38.101Z,3.60
2023-03-04T23:52:38.059Z,3.40
2023-03-04T23:53:38.021Z,3.60
2023-03-04T23:54:37.964Z,3.80
2023-03-04T23:55:37.912Z,3.30
2023-03-04T23:56:37.879Z,3.10
2023-03-04T23:57:37.813Z,3.50
2023-03-04T23:58:37.796Z,3.40
2023-03-04T23:59:37.720Z,3.30
